ASX668 LMML-LGSK
Flight info
| Callsign | ASX668 |
|---|---|
| Flight time | 1h 25m |
| Altitude | 43000 |
| Route | VESOD DCT INROF DCT DINOB/N0480F410 UM600 TSL UL617 IBIDI |
| Aircraft | C700/M-SBDGRWXY/LB2 |
Departure
| Time | 2026-04-24 11:08 |
|---|---|
| Airport | Malta International Airport (LMML) |
Arrival
| Time | 2026-04-24 12:33 |
|---|---|
| Airport | Skiathos Island National Airport (LGSK) |
| Time | Latitude | Longitude | Altitude | Speed | Heading |
|---|---|---|---|---|---|
| 2026-04-24 10:57 | 35.85973 | 14.47637 | 251 ft | 0 kts | 88° |
| 2026-04-24 11:03 | 35.85974 | 14.47661 | 251 ft | 8 kts | 87° |
| 2026-04-24 11:03 | 35.85930 | 14.47748 | 252 ft | 16 kts | 143° |
| 2026-04-24 11:04 | 35.85880 | 14.47686 | 252 ft | 13 kts | 248° |
| 2026-04-24 11:04 | 35.85835 | 14.47549 | 252 ft | 22 kts | 237° |
| 2026-04-24 11:04 | 35.85733 | 14.47374 | 252 ft | 27 kts | 234° |
| 2026-04-24 11:04 | 35.85617 | 14.47236 | 253 ft | 22 kts | 232° |
| 2026-04-24 11:05 | 35.85520 | 14.47085 | 253 ft | 23 kts | 233° |
| 2026-04-24 11:05 | 35.85433 | 14.46923 | 254 ft | 23 kts | 246° |
| 2026-04-24 11:05 | 35.85354 | 14.46747 | 254 ft | 24 kts | 234° |
| 2026-04-24 11:05 | 35.85259 | 14.46576 | 254 ft | 25 kts | 234° |
| 2026-04-24 11:06 | 35.85150 | 14.46412 | 254 ft | 24 kts | 225° |
| 2026-04-24 11:06 | 35.85087 | 14.46293 | 253 ft | 25 kts | 238° |
| 2026-04-24 11:06 | 35.84989 | 14.46117 | 254 ft | 25 kts | 235° |
| 2026-04-24 11:06 | 35.84901 | 14.45975 | 254 ft | 19 kts | 211° |
| 2026-04-24 11:07 | 35.84828 | 14.46153 | 254 ft | 43 kts | 55° |
| 2026-04-24 11:07 | 35.85217 | 14.46813 | 256 ft | 145 kts | 54° |
| 2026-04-24 11:07 | 35.85938 | 14.48074 | 607 ft | 204 kts | 52° |
| 2026-04-24 11:08 | 35.86757 | 14.49510 | 1476 ft | 203 kts | 57° |
| 2026-04-24 11:08 | 35.87540 | 14.50894 | 2255 ft | 195 kts | 55° |
| 2026-04-24 11:08 | 35.88365 | 14.52332 | 3026 ft | 214 kts | 53° |
| 2026-04-24 11:08 | 35.89256 | 14.53898 | 3827 ft | 234 kts | 52° |
| 2026-04-24 11:09 | 35.90232 | 14.55604 | 4596 ft | 252 kts | 51° |
| 2026-04-24 11:09 | 35.91367 | 14.57322 | 5361 ft | 261 kts | 37° |
| 2026-04-24 11:09 | 35.92994 | 14.58201 | 6118 ft | 257 kts | 5° |
| 2026-04-24 11:09 | 35.94794 | 14.58339 | 6885 ft | 260 kts | 359° |
| 2026-04-24 11:10 | 35.96607 | 14.58431 | 7626 ft | 261 kts | 359° |
| 2026-04-24 11:10 | 35.98434 | 14.58575 | 8387 ft | 266 kts | 0° |
| 2026-04-24 11:10 | 36.00291 | 14.58739 | 9159 ft | 268 kts | 360° |
| 2026-04-24 11:10 | 36.02161 | 14.58894 | 9957 ft | 270 kts | 359° |
| 2026-04-24 11:11 | 36.04077 | 14.59041 | 10683 ft | 288 kts | 359° |
| 2026-04-24 11:11 | 36.06207 | 14.59250 | 11425 ft | 327 kts | 4° |
| 2026-04-24 11:11 | 36.08485 | 14.60045 | 12106 ft | 346 kts | 17° |
| 2026-04-24 11:11 | 36.10625 | 14.61466 | 12745 ft | 365 kts | 30° |
| 2026-04-24 11:12 | 36.12536 | 14.63546 | 13403 ft | 373 kts | 43° |
| 2026-04-24 11:12 | 36.14059 | 14.66210 | 14052 ft | 385 kts | 58° |
| 2026-04-24 11:12 | 36.15084 | 14.69296 | 14649 ft | 391 kts | 68° |
| 2026-04-24 11:12 | 36.15978 | 14.72495 | 15264 ft | 396 kts | 67° |
| 2026-04-24 11:13 | 36.16910 | 14.75717 | 15884 ft | 399 kts | 66° |
| 2026-04-24 11:13 | 36.17859 | 14.78954 | 16520 ft | 401 kts | 67° |
| 2026-04-24 11:13 | 36.18801 | 14.82227 | 17165 ft | 406 kts | 67° |
| 2026-04-24 11:13 | 36.19749 | 14.85551 | 17827 ft | 411 kts | 67° |
| 2026-04-24 11:14 | 36.20714 | 14.88903 | 18485 ft | 415 kts | 67° |
| 2026-04-24 11:14 | 36.21688 | 14.92280 | 19071 ft | 418 kts | 67° |
| 2026-04-24 11:14 | 36.22667 | 14.95694 | 19670 ft | 421 kts | 67° |
| 2026-04-24 11:14 | 36.23649 | 14.99125 | 20282 ft | 425 kts | 67° |
| 2026-04-24 11:15 | 36.24644 | 15.02596 | 20909 ft | 429 kts | 67° |
| 2026-04-24 11:15 | 36.25645 | 15.06096 | 21547 ft | 433 kts | 67° |
| 2026-04-24 11:15 | 36.26642 | 15.09589 | 22187 ft | 438 kts | 67° |
| 2026-04-24 11:15 | 36.27663 | 15.13166 | 22851 ft | 442 kts | 67° |
| 2026-04-24 11:16 | 36.28691 | 15.16778 | 23536 ft | 447 kts | 67° |
| 2026-04-24 11:16 | 36.29727 | 15.20420 | 24132 ft | 450 kts | 67° |
| 2026-04-24 11:16 | 36.30769 | 15.24089 | 24720 ft | 453 kts | 67° |
| 2026-04-24 11:16 | 36.31824 | 15.27802 | 25320 ft | 460 kts | 67° |
| 2026-04-24 11:17 | 36.32889 | 15.31563 | 25945 ft | 462 kts | 67° |
| 2026-04-24 11:17 | 36.33954 | 15.35335 | 26471 ft | 466 kts | 67° |
| 2026-04-24 11:17 | 36.35034 | 15.39152 | 26991 ft | 470 kts | 66° |
| 2026-04-24 11:17 | 36.36114 | 15.42980 | 27492 ft | 470 kts | 66° |
| 2026-04-24 11:18 | 36.37202 | 15.46841 | 28020 ft | 477 kts | 66° |
| 2026-04-24 11:18 | 36.38300 | 15.50742 | 28565 ft | 479 kts | 66° |
| 2026-04-24 11:18 | 36.39394 | 15.54644 | 29110 ft | 481 kts | 66° |
| 2026-04-24 11:18 | 36.40500 | 15.58584 | 29674 ft | 485 kts | 66° |
| 2026-04-24 11:19 | 36.41614 | 15.62553 | 30235 ft | 489 kts | 66° |
| 2026-04-24 11:19 | 36.42732 | 15.66553 | 30716 ft | 492 kts | 66° |
| 2026-04-24 11:19 | 36.43854 | 15.70577 | 31210 ft | 494 kts | 66° |
| 2026-04-24 11:19 | 36.44983 | 15.74626 | 31716 ft | 496 kts | 66° |
| 2026-04-24 11:20 | 36.46112 | 15.78677 | 32236 ft | 496 kts | 66° |
| 2026-04-24 11:20 | 36.47238 | 15.82728 | 32747 ft | 496 kts | 66° |
| 2026-04-24 11:20 | 36.48350 | 15.86737 | 33274 ft | 495 kts | 66° |
| 2026-04-24 11:20 | 36.49577 | 15.90706 | 33807 ft | 487 kts | 60° |
| 2026-04-24 11:21 | 36.51214 | 15.94356 | 34291 ft | 481 kts | 51° |
| 2026-04-24 11:21 | 36.53204 | 15.97665 | 34698 ft | 476 kts | 45° |
| 2026-04-24 11:21 | 36.55292 | 16.00864 | 35106 ft | 475 kts | 45° |
| 2026-04-24 11:21 | 36.57346 | 16.04064 | 35526 ft | 471 kts | 46° |
| 2026-04-24 11:22 | 36.59385 | 16.07252 | 35945 ft | 471 kts | 46° |
| 2026-04-24 11:22 | 36.61433 | 16.10426 | 36375 ft | 470 kts | 45° |
| 2026-04-24 11:22 | 36.63480 | 16.13595 | 36812 ft | 469 kts | 45° |
| 2026-04-24 11:22 | 36.65512 | 16.16762 | 37260 ft | 467 kts | 46° |
| 2026-04-24 11:23 | 36.67531 | 16.19917 | 37714 ft | 465 kts | 46° |
| 2026-04-24 11:23 | 36.69543 | 16.23055 | 38178 ft | 463 kts | 45° |
| 2026-04-24 11:23 | 36.71552 | 16.26186 | 38653 ft | 461 kts | 45° |
| 2026-04-24 11:23 | 36.73551 | 16.29308 | 39053 ft | 460 kts | 46° |
| 2026-04-24 11:24 | 36.75552 | 16.32437 | 39276 ft | 462 kts | 46° |
| 2026-04-24 11:24 | 36.77561 | 16.35582 | 39504 ft | 464 kts | 46° |
| 2026-04-24 11:24 | 36.79571 | 16.38732 | 39731 ft | 465 kts | 46° |
| 2026-04-24 11:24 | 36.81590 | 16.41900 | 39964 ft | 467 kts | 46° |
| 2026-04-24 11:25 | 36.83612 | 16.45074 | 40203 ft | 468 kts | 46° |
| 2026-04-24 11:25 | 36.85608 | 16.48211 | 40440 ft | 467 kts | 46° |
| 2026-04-24 11:25 | 36.87619 | 16.51377 | 40679 ft | 464 kts | 46° |
| 2026-04-24 11:25 | 36.89627 | 16.54537 | 40918 ft | 464 kts | 46° |
| 2026-04-24 11:26 | 36.91639 | 16.57704 | 41161 ft | 465 kts | 47° |
| 2026-04-24 11:26 | 36.93652 | 16.60880 | 41416 ft | 466 kts | 47° |
| 2026-04-24 11:26 | 36.95665 | 16.64059 | 41666 ft | 466 kts | 47° |
| 2026-04-24 11:26 | 36.97680 | 16.67244 | 41917 ft | 466 kts | 47° |
| 2026-04-24 11:27 | 36.99690 | 16.70423 | 42178 ft | 466 kts | 47° |
| 2026-04-24 11:27 | 37.01700 | 16.73605 | 42436 ft | 466 kts | 47° |
| 2026-04-24 11:27 | 37.03710 | 16.76791 | 42698 ft | 466 kts | 47° |
| 2026-04-24 11:27 | 37.05723 | 16.79968 | 42963 ft | 465 kts | 46° |
| 2026-04-24 11:28 | 37.07929 | 16.82907 | 43097 ft | 465 kts | 41° |
| 2026-04-24 11:28 | 37.10219 | 16.85797 | 43102 ft | 470 kts | 41° |
| 2026-04-24 11:28 | 37.14840 | 16.91727 | 43114 ft | 479 kts | 42° |
| 2026-04-24 11:29 | 37.19451 | 16.97625 | 43115 ft | 473 kts | 41° |
| 2026-04-24 11:29 | 37.24057 | 17.03531 | 43113 ft | 476 kts | 42° |
| 2026-04-24 11:30 | 37.28690 | 17.09488 | 43110 ft | 475 kts | 42° |
| 2026-04-24 11:30 | 37.33290 | 17.15409 | 43099 ft | 472 kts | 42° |
| 2026-04-24 11:31 | 37.37902 | 17.21355 | 43108 ft | 477 kts | 42° |
| 2026-04-24 11:31 | 37.42521 | 17.27328 | 43107 ft | 475 kts | 42° |
| 2026-04-24 11:32 | 37.47116 | 17.33276 | 43105 ft | 473 kts | 42° |
| 2026-04-24 11:32 | 37.51669 | 17.39183 | 43106 ft | 472 kts | 42° |
| 2026-04-24 11:33 | 37.56259 | 17.45146 | 43104 ft | 476 kts | 42° |
| 2026-04-24 11:33 | 37.60872 | 17.51154 | 43100 ft | 477 kts | 43° |
| 2026-04-24 11:34 | 37.65473 | 17.57157 | 43105 ft | 475 kts | 43° |
| 2026-04-24 11:34 | 37.70060 | 17.63151 | 43101 ft | 474 kts | 43° |
| 2026-04-24 11:35 | 37.74633 | 17.69140 | 43098 ft | 472 kts | 43° |
| 2026-04-24 11:35 | 37.79184 | 17.75110 | 43101 ft | 471 kts | 43° |
| 2026-04-24 11:36 | 37.83725 | 17.81079 | 43098 ft | 471 kts | 43° |
| 2026-04-24 11:36 | 37.88254 | 17.87043 | 43095 ft | 474 kts | 43° |
| 2026-04-24 11:37 | 37.92824 | 17.93075 | 43096 ft | 474 kts | 43° |
| 2026-04-24 11:37 | 37.97385 | 17.99104 | 43093 ft | 472 kts | 43° |
| 2026-04-24 11:38 | 38.01925 | 18.05117 | 43088 ft | 470 kts | 43° |
| 2026-04-24 11:38 | 38.06418 | 18.11079 | 43097 ft | 471 kts | 43° |
| 2026-04-24 11:39 | 38.10975 | 18.17137 | 43085 ft | 475 kts | 43° |
| 2026-04-24 11:39 | 38.15517 | 18.23190 | 43079 ft | 472 kts | 43° |
| 2026-04-24 11:40 | 38.20042 | 18.29228 | 43085 ft | 471 kts | 43° |
| 2026-04-24 11:40 | 38.24550 | 18.35257 | 43085 ft | 470 kts | 44° |
| 2026-04-24 11:41 | 38.29051 | 18.41287 | 43091 ft | 475 kts | 44° |
| 2026-04-24 11:41 | 38.33558 | 18.47341 | 43077 ft | 463 kts | 44° |
| 2026-04-24 11:42 | 38.37991 | 18.53299 | 43070 ft | 467 kts | 44° |
| 2026-04-24 11:42 | 38.42449 | 18.59311 | 43075 ft | 465 kts | 44° |
| 2026-04-24 11:43 | 38.46882 | 18.65294 | 43078 ft | 462 kts | 44° |
| 2026-04-24 11:43 | 38.51290 | 18.71257 | 43073 ft | 461 kts | 45° |
| 2026-04-24 11:44 | 38.55708 | 18.77246 | 43074 ft | 465 kts | 45° |
| 2026-04-24 11:44 | 38.60144 | 18.83271 | 43076 ft | 464 kts | 45° |
| 2026-04-24 11:45 | 38.64552 | 18.89267 | 43073 ft | 462 kts | 45° |
| 2026-04-24 11:45 | 38.68914 | 18.95214 | 43080 ft | 460 kts | 45° |
| 2026-04-24 11:46 | 38.73280 | 19.01252 | 43070 ft | 464 kts | 47° |
| 2026-04-24 11:46 | 38.77532 | 19.07510 | 43068 ft | 465 kts | 47° |
| 2026-04-24 11:47 | 38.81770 | 19.13728 | 43074 ft | 462 kts | 47° |
| 2026-04-24 11:47 | 38.85976 | 19.19933 | 43063 ft | 460 kts | 47° |
| 2026-04-24 11:48 | 38.90200 | 19.26162 | 43064 ft | 464 kts | 47° |
| 2026-04-24 11:48 | 38.94441 | 19.32438 | 43071 ft | 464 kts | 47° |
| 2026-04-24 11:49 | 38.98666 | 19.38698 | 43071 ft | 463 kts | 47° |
| 2026-04-24 11:49 | 39.02875 | 19.44950 | 43059 ft | 462 kts | 47° |
| 2026-04-24 11:50 | 39.07047 | 19.51158 | 43055 ft | 461 kts | 47° |
| 2026-04-24 11:50 | 39.11236 | 19.57403 | 43051 ft | 461 kts | 47° |
| 2026-04-24 11:51 | 39.15443 | 19.63690 | 43052 ft | 464 kts | 47° |
| 2026-04-24 11:51 | 39.19667 | 19.70013 | 43039 ft | 465 kts | 48° |
| 2026-04-24 11:52 | 39.23881 | 19.76333 | 43038 ft | 463 kts | 48° |
| 2026-04-24 11:52 | 39.28077 | 19.82640 | 43032 ft | 462 kts | 48° |
| 2026-04-24 11:53 | 39.32231 | 19.88896 | 43028 ft | 461 kts | 48° |
| 2026-04-24 11:53 | 39.36396 | 19.95182 | 43028 ft | 460 kts | 48° |
| 2026-04-24 11:54 | 39.40552 | 20.01465 | 43027 ft | 459 kts | 48° |
| 2026-04-24 11:54 | 39.43898 | 20.06788 | 43026 ft | 462 kts | 55° |
| 2026-04-24 11:55 | 39.46797 | 20.14237 | 43019 ft | 465 kts | 64° |
| 2026-04-24 11:55 | 39.49441 | 20.21892 | 43017 ft | 466 kts | 64° |
| 2026-04-24 11:56 | 39.52087 | 20.29566 | 43011 ft | 467 kts | 64° |
| 2026-04-24 11:56 | 39.54720 | 20.37237 | 43003 ft | 465 kts | 64° |
| 2026-04-24 11:57 | 39.57341 | 20.44880 | 43010 ft | 464 kts | 65° |
| 2026-04-24 11:57 | 39.59951 | 20.52522 | 43012 ft | 463 kts | 65° |
| 2026-04-24 11:58 | 39.62555 | 20.60158 | 43020 ft | 462 kts | 65° |
| 2026-04-24 11:58 | 39.65133 | 20.67745 | 43027 ft | 463 kts | 65° |
| 2026-04-24 11:59 | 39.67738 | 20.75426 | 43030 ft | 467 kts | 65° |
| 2026-04-24 11:59 | 39.70369 | 20.83140 | 43030 ft | 466 kts | 63° |
| 2026-04-24 12:00 | 39.73134 | 20.90734 | 43030 ft | 465 kts | 64° |
| 2026-04-24 12:00 | 39.75846 | 20.98255 | 43021 ft | 464 kts | 63° |
| 2026-04-24 12:01 | 39.78592 | 21.05836 | 43020 ft | 463 kts | 64° |
| 2026-04-24 12:01 | 39.81319 | 21.13424 | 43008 ft | 464 kts | 63° |
| 2026-04-24 12:02 | 39.84061 | 21.21046 | 43008 ft | 466 kts | 64° |
| 2026-04-24 12:02 | 39.86801 | 21.28702 | 43018 ft | 467 kts | 64° |
| 2026-04-24 12:03 | 39.89536 | 21.36355 | 43015 ft | 465 kts | 64° |
| 2026-04-24 12:03 | 39.92255 | 21.43984 | 43015 ft | 464 kts | 64° |
| 2026-04-24 12:04 | 39.94946 | 21.51555 | 43013 ft | 462 kts | 64° |
| 2026-04-24 12:04 | 39.97644 | 21.59148 | 43013 ft | 461 kts | 64° |
| 2026-04-24 12:05 | 40.00365 | 21.66740 | 43018 ft | 463 kts | 64° |
| 2026-04-24 12:05 | 40.03078 | 21.74378 | 43015 ft | 465 kts | 64° |
| 2026-04-24 12:06 | 40.05806 | 21.82055 | 43021 ft | 466 kts | 64° |
| 2026-04-24 12:06 | 40.08529 | 21.89750 | 43024 ft | 467 kts | 64° |
| 2026-04-24 12:07 | 40.11248 | 21.97450 | 43021 ft | 466 kts | 64° |
| 2026-04-24 12:07 | 40.13924 | 22.05158 | 43020 ft | 465 kts | 65° |
| 2026-04-24 12:08 | 40.16529 | 22.12906 | 42931 ft | 466 kts | 65° |
| 2026-04-24 12:08 | 40.17850 | 22.16756 | 42345 ft | 459 kts | 64° |
| 2026-04-24 12:08 | 40.19113 | 22.20456 | 41852 ft | 445 kts | 65° |
| 2026-04-24 12:09 | 40.20360 | 22.24150 | 41305 ft | 446 kts | 65° |
| 2026-04-24 12:09 | 40.21620 | 22.27883 | 40661 ft | 450 kts | 65° |
| 2026-04-24 12:09 | 40.22865 | 22.31563 | 40083 ft | 446 kts | 64° |
| 2026-04-24 12:09 | 40.24115 | 22.35256 | 39516 ft | 443 kts | 64° |
| 2026-04-24 12:10 | 40.25361 | 22.38952 | 38924 ft | 445 kts | 64° |
| 2026-04-24 12:10 | 40.26609 | 22.42663 | 38244 ft | 444 kts | 64° |
| 2026-04-24 12:10 | 40.27846 | 22.46346 | 37672 ft | 440 kts | 64° |
| 2026-04-24 12:11 | 40.30327 | 22.53691 | 36459 ft | 441 kts | 64° |
| 2026-04-24 12:11 | 40.31592 | 22.57340 | 35885 ft | 438 kts | 63° |
| 2026-04-24 12:11 | 40.32846 | 22.60962 | 35306 ft | 436 kts | 64° |
| 2026-04-24 12:11 | 40.34080 | 22.64601 | 34699 ft | 439 kts | 64° |
| 2026-04-24 12:12 | 40.35302 | 22.68255 | 34079 ft | 435 kts | 64° |
| 2026-04-24 12:12 | 40.36518 | 22.71867 | 33499 ft | 433 kts | 64° |
| 2026-04-24 12:12 | 40.37615 | 22.75576 | 32916 ft | 441 kts | 71° |
| 2026-04-24 12:12 | 40.38284 | 22.79513 | 32332 ft | 443 kts | 79° |
| 2026-04-24 12:13 | 40.38513 | 22.83551 | 31748 ft | 446 kts | 87° |
| 2026-04-24 12:13 | 40.38288 | 22.87620 | 31160 ft | 450 kts | 95° |
| 2026-04-24 12:13 | 40.37601 | 22.91646 | 30572 ft | 456 kts | 104° |
| 2026-04-24 12:13 | 40.36446 | 22.95546 | 29943 ft | 462 kts | 112° |
| 2026-04-24 12:14 | 40.34872 | 22.99133 | 29322 ft | 457 kts | 121° |
| 2026-04-24 12:14 | 40.32895 | 23.02399 | 28726 ft | 459 kts | 130° |
| 2026-04-24 12:14 | 40.30555 | 23.05248 | 28117 ft | 458 kts | 139° |
| 2026-04-24 12:14 | 40.27886 | 23.07629 | 27508 ft | 480 kts | 147° |
| 2026-04-24 12:15 | 40.24856 | 23.09499 | 26873 ft | 476 kts | 157° |
| 2026-04-24 12:15 | 40.21742 | 23.11003 | 26250 ft | 480 kts | 158° |
| 2026-04-24 12:15 | 40.18652 | 23.12531 | 25621 ft | 470 kts | 157° |
| 2026-04-24 12:15 | 40.15603 | 23.14070 | 25007 ft | 469 kts | 157° |
| 2026-04-24 12:16 | 40.12573 | 23.15570 | 24392 ft | 462 kts | 158° |
| 2026-04-24 12:16 | 40.09574 | 23.17029 | 23786 ft | 458 kts | 158° |
| 2026-04-24 12:16 | 40.06599 | 23.18494 | 23141 ft | 455 kts | 158° |
| 2026-04-24 12:16 | 40.03659 | 23.19958 | 22536 ft | 451 kts | 158° |
| 2026-04-24 12:17 | 40.00729 | 23.21403 | 21947 ft | 448 kts | 158° |
| 2026-04-24 12:17 | 39.97824 | 23.22823 | 21357 ft | 444 kts | 158° |
| 2026-04-24 12:17 | 39.94946 | 23.24237 | 20777 ft | 440 kts | 158° |
| 2026-04-24 12:17 | 39.92091 | 23.25646 | 20201 ft | 437 kts | 158° |
| 2026-04-24 12:18 | 39.89257 | 23.27037 | 19624 ft | 434 kts | 158° |
| 2026-04-24 12:18 | 39.86440 | 23.28415 | 19058 ft | 431 kts | 158° |
| 2026-04-24 12:18 | 39.83646 | 23.29787 | 18487 ft | 428 kts | 158° |
| 2026-04-24 12:18 | 39.80877 | 23.31144 | 17893 ft | 423 kts | 158° |
| 2026-04-24 12:19 | 39.78136 | 23.32484 | 17336 ft | 418 kts | 158° |
| 2026-04-24 12:19 | 39.75424 | 23.33809 | 16783 ft | 415 kts | 157° |
| 2026-04-24 12:19 | 39.72734 | 23.35125 | 16236 ft | 411 kts | 157° |
| 2026-04-24 12:19 | 39.70063 | 23.36428 | 15695 ft | 407 kts | 157° |
| 2026-04-24 12:20 | 39.67422 | 23.37711 | 15161 ft | 403 kts | 157° |
| 2026-04-24 12:20 | 39.64806 | 23.38986 | 14632 ft | 399 kts | 157° |
| 2026-04-24 12:20 | 39.62248 | 23.40232 | 14114 ft | 396 kts | 157° |
| 2026-04-24 12:20 | 39.59683 | 23.41477 | 13575 ft | 392 kts | 157° |
| 2026-04-24 12:21 | 39.57139 | 23.42713 | 13044 ft | 388 kts | 157° |
| 2026-04-24 12:21 | 39.54616 | 23.43940 | 12534 ft | 387 kts | 158° |
| 2026-04-24 12:21 | 39.52100 | 23.45159 | 12030 ft | 386 kts | 158° |
| 2026-04-24 12:21 | 39.49590 | 23.46374 | 11511 ft | 384 kts | 158° |
| 2026-04-24 12:22 | 39.47128 | 23.47566 | 11013 ft | 369 kts | 158° |
| 2026-04-24 12:22 | 39.45709 | 23.48253 | 10726 ft | 355 kts | 158° |
| 2026-04-24 12:22 | 39.43510 | 23.49312 | 10287 ft | 321 kts | 158° |
| 2026-04-24 12:22 | 39.41494 | 23.50286 | 9896 ft | 303 kts | 159° |
| 2026-04-24 12:23 | 39.39522 | 23.51244 | 9481 ft | 300 kts | 159° |
| 2026-04-24 12:23 | 39.37579 | 23.52187 | 9085 ft | 296 kts | 159° |
| 2026-04-24 12:23 | 39.35660 | 23.53114 | 8699 ft | 293 kts | 159° |
| 2026-04-24 12:23 | 39.33760 | 23.54029 | 8320 ft | 291 kts | 159° |
| 2026-04-24 12:24 | 39.31867 | 23.54943 | 7936 ft | 289 kts | 159° |
| 2026-04-24 12:24 | 39.29986 | 23.55852 | 7558 ft | 288 kts | 159° |
| 2026-04-24 12:24 | 39.28117 | 23.56754 | 7181 ft | 287 kts | 159° |
| 2026-04-24 12:24 | 39.26250 | 23.57654 | 6800 ft | 286 kts | 160° |
| 2026-04-24 12:25 | 39.24422 | 23.58533 | 6431 ft | 283 kts | 159° |
| 2026-04-24 12:25 | 39.22584 | 23.59418 | 6043 ft | 280 kts | 160° |
| 2026-04-24 12:25 | 39.20763 | 23.60292 | 5682 ft | 278 kts | 160° |
| 2026-04-24 12:25 | 39.18868 | 23.60793 | 5293 ft | 279 kts | 178° |
| 2026-04-24 12:26 | 39.16961 | 23.60588 | 4913 ft | 271 kts | 194° |
| 2026-04-24 12:26 | 39.15227 | 23.59772 | 4573 ft | 257 kts | 208° |
| 2026-04-24 12:26 | 39.13721 | 23.58758 | 4246 ft | 232 kts | 209° |
| 2026-04-24 12:26 | 39.12339 | 23.57849 | 3944 ft | 215 kts | 208° |
| 2026-04-24 12:27 | 39.11034 | 23.57003 | 3687 ft | 204 kts | 209° |
| 2026-04-24 12:27 | 39.09823 | 23.56209 | 3437 ft | 191 kts | 209° |
| 2026-04-24 12:27 | 39.08630 | 23.55429 | 3180 ft | 192 kts | 208° |
| 2026-04-24 12:27 | 39.07432 | 23.54646 | 2916 ft | 194 kts | 208° |
| 2026-04-24 12:28 | 39.06232 | 23.53864 | 2659 ft | 193 kts | 209° |
| 2026-04-24 12:28 | 39.05030 | 23.53080 | 2406 ft | 194 kts | 208° |
| 2026-04-24 12:28 | 39.03833 | 23.52299 | 2144 ft | 192 kts | 208° |
| 2026-04-24 12:28 | 39.02691 | 23.51459 | 2009 ft | 185 kts | 221° |
| 2026-04-24 12:29 | 39.02041 | 23.50066 | 2012 ft | 187 kts | 257° |
| 2026-04-24 12:29 | 39.02078 | 23.48474 | 2013 ft | 180 kts | 290° |
| 2026-04-24 12:29 | 39.02760 | 23.47168 | 2011 ft | 177 kts | 321° |
| 2026-04-24 12:29 | 39.03847 | 23.46534 | 2015 ft | 172 kts | 351° |
| 2026-04-24 12:30 | 39.05060 | 23.46657 | 1985 ft | 176 kts | 12° |
| 2026-04-24 12:30 | 39.06267 | 23.47027 | 1896 ft | 177 kts | 12° |
| 2026-04-24 12:30 | 39.07411 | 23.47354 | 1811 ft | 157 kts | 11° |
| 2026-04-24 12:30 | 39.08447 | 23.47638 | 1705 ft | 150 kts | 11° |
| 2026-04-24 12:31 | 39.09449 | 23.47912 | 1628 ft | 143 kts | 11° |
| 2026-04-24 12:31 | 39.10408 | 23.48185 | 1626 ft | 139 kts | 11° |
| 2026-04-24 12:31 | 39.11345 | 23.48455 | 1624 ft | 137 kts | 11° |
| 2026-04-24 12:31 | 39.12261 | 23.48684 | 1507 ft | 130 kts | 8° |
| 2026-04-24 12:32 | 39.13165 | 23.48851 | 1205 ft | 134 kts | 6° |
| 2026-04-24 12:32 | 39.14104 | 23.48995 | 906 ft | 132 kts | 7° |
| 2026-04-24 12:32 | 39.14978 | 23.49187 | 677 ft | 121 kts | 10° |
| 2026-04-24 12:32 | 39.15784 | 23.49496 | 348 ft | 118 kts | 21° |
| 2026-04-24 12:33 | 39.16541 | 23.49852 | 120 ft | 114 kts | 16° |
| 2026-04-24 12:33 | 39.17253 | 23.50162 | 23 ft | 99 kts | 17° |
| 2026-04-24 12:33 | 39.17700 | 23.50354 | 35 ft | 21 kts | 339° |
| 2026-04-24 12:33 | 39.17710 | 23.50281 | 35 ft | 6 kts | 332° |
| 2026-04-24 12:34 | 39.17741 | 23.50274 | 35 ft | 7 kts | 234° |
| 2026-04-24 12:34 | 39.17671 | 23.50252 | 34 ft | 12 kts | 198° |
| 2026-04-24 12:34 | 39.17622 | 23.50219 | 34 ft | 5 kts | 256° |
| 2026-04-24 12:34 | 39.17628 | 23.50200 | 34 ft | 0 kts | 288° |